ADDS METAR Data INFO
IDs: Format: Raw Decoded Include TAF

Data at: 2345 UTC 23 Feb 2018

KLLQ 232301Z AUTO 04005KT 10SM OVC007 18/16 A3015 RMK AO2 T01830161
KLLQ 232253Z AUTO VRB06KT 10SM OVC006 18/16 A3015 RMK AO2 SLP209 T01830161
KLLQ 232204Z AUTO 05008KT 10SM OVC006 18/16 A3015 RMK AO2 T01780161
KLLQ 232153Z AUTO 05005KT 10SM OVC007 18/16 A3017 RMK AO2 SLP213 T01780161
KLLQ 232112Z AUTO 07007KT 10SM OVC009 18/16 A3017 RMK AO2 CIG 006V012 T01780156
KLLQ 232053Z AUTO 07009KT 10SM FEW006 OVC012 18/16 A3017 RMK AO2 SLP215 60001 T01780156 56018
KLLQ 232049Z AUTO 07006KT 10SM FEW006 OVC012 18/16 A3018 RMK AO2
KLLQ 231953Z AUTO 04006KT 10SM OVC014 18/16 A3019 RMK AO2 SLP222 T01780156
KLLQ 231934Z AUTO 05005KT 10SM OVC014 18/16 A3020 RMK AO2 T01780156
KLLQ 231853Z AUTO 04005KT 10SM OVC016 17/15 A3022 RMK AO2 RAE20 SLP233 P0001 T01720150
KLLQ 231801Z AUTO 00000KT 4SM -RA BR OVC015 17/15 A3026 RMK AO2 P0000 T01670150
KLLQ 231753Z AUTO 07004KT 4SM RA BR BKN013 OVC018 17/15 A3026 RMK AO2 RAB43 SLP246 P0002 60002 T01670150 10167 20106 58007
KLLQ 231751Z AUTO 06003KT 5SM -RA BR BKN013 OVC018 17/15 A3026 RMK AO2 RAB43 P0001
KLLQ 231735Z AUTO 05006KT 10SM FEW006 SCT014 OVC020 17/14 A3027 RMK AO2 T01670144
KLLQ 231653Z AUTO 06003KT 10SM BKN006 BKN021 OVC027 16/14 A3028 RMK AO2 RAB07E16 SLP254 P0000 T01610139
KLLQ 231633Z AUTO 08005KT 10SM FEW008 BKN022 OVC029 16/14 A3029 RMK AO2 RAB07E16 P0000 T01560139
KLLQ 231553Z AUTO 00000KT 10SM OVC028 16/14 A3028 RMK AO2 SLP253 T01560139 $
KLLQ 231453Z AUTO 00000KT 10SM OVC025 14/13 A3028 RMK AO2 SLP253 T01440128 51002 $
KLLQ 231353Z AUTO 13003KT 9SM OVC020 12/11 A3028 RMK AO2 SLP253 T01170111
KLLQ 231317Z AUTO 00000KT 7SM OVC016 11/11 A3028 RMK AO2 T01110106
KLLQ 231253Z AUTO 00000KT 3SM BR SCT002 OVC012 11/10 A3028 RMK AO2 SLP252 T01110100
KLLQ 231213Z AUTO 30008KT 2SM BR OVC002 11/10 A3028 RMK AO2 T01110100
KLLQ 231203Z AUTO 29010KT 1 1/2SM BR OVC002 11/11 A3028 RMK AO2 T01110106
KLLQ 231153Z AUTO 29007KT 3/4SM BR VV002 12/11 A3027 RMK AO2 PRESRR SLP251 70014 T01220111 10128 20106 53023
KLLQ 231053Z AUTO 00000KT 3/4SM BR VV003 12/12 A3023 RMK AO2 SLP237 T01220117
KLLQ 231023Z AUTO 31004KT 1 3/4SM BR OVC003 13/12 A3022 RMK AO2 T01280117
KLLQ 230953Z AUTO 00000KT 10SM OVC004 12/11 A3020 RMK AO2 SLP227 T01220111
KLLQ 230912Z AUTO 00000KT 10SM OVC006 12/11 A3020 RMK AO2 T01170106
KLLQ 230853Z AUTO 00000KT 10SM OVC007 12/11 A3021 RMK AO2 SLP228 T01170106 58005
KLLQ 230829Z AUTO 00000KT 8SM BKN009 BKN030 OVC040 11/10 A3021 RMK AO2 T01110100
KLLQ 230753Z AUTO 00000KT 10SM OVC014 11/10 A3023 RMK AO2 SLP235 T01110100
KLLQ 230749Z AUTO 00000KT 10SM FEW003 OVC014 11/10 A3023 RMK AO2
KLLQ 230742Z AUTO 00000KT 10SM FEW003 BKN015 11/10 A3023 RMK AO2 T01110100
KLLQ 230729Z AUTO 00000KT 9SM FEW003 SCT015 11/09 A3022 RMK AO2 T01060094
KLLQ 230653Z AUTO 00000KT 10SM FEW110 11/09 A3022 RMK AO2 SLP233 T01110094
KLLQ 230616Z AUTO 15004KT 9SM SCT002 11/09 A3022 RMK AO2 T01060094
KLLQ 230604Z AUTO 12004KT 9SM SCT002 BKN011 11/09 A3021 RMK AO2 T01060094
KLLQ 230553Z AUTO 12004KT 6SM BR BKN002 11/09 A3021 RMK AO2 SLP229 T01060094 10106 20100 401060056 58005
KLLQ 230546Z AUTO 11003KT 5SM BR SCT003 11/09 A3021 RMK AO2 T01060094
KLLQ 230453Z AUTO 13003KT 8SM BKN002 BKN075 OVC090 11/09 A3023 RMK AO2 SLP236 T01060094
KLLQ 230353Z AUTO 00000KT 6SM BR OVC002 11/09 A3023 RMK AO2 SLP238 T01060094
KLLQ 230321Z AUTO 08004KT 3SM BR OVC003 10/09 A3023 RMK AO2 T01000094
KLLQ 230313Z AUTO 06003KT 2 1/2SM BR OVC003 10/09 A3023 RMK AO2 T01000094
KLLQ 230253Z AUTO 08005KT 1 1/4SM BR OVC003 10/09 A3022 RMK AO2 SLP234 T01000094 50000
KLLQ 230153Z AUTO 04003KT 1 1/2SM BR OVC002 10/09 A3023 RMK AO2 SLP238 T01000094
KLLQ 230150Z AUTO 04003KT 1 1/4SM BR OVC002 10/09 A3023 RMK AO2
KLLQ 230115Z AUTO 09005KT 3/4SM BR VV002 10/09 A3022 RMK AO2 T01000089
KLLQ 230053Z AUTO 07004KT 1 3/4SM BR OVC002 10/09 A3022 RMK AO2 SLP234 T01000089
KLLQ 230051Z AUTO 07004KT 1 3/4SM BR OVC002 10/09 A3022 RMK AO2
KLLQ 222353Z AUTO 07005KT 10SM OVC002 10/09 A3021 RMK AO2 SLP231 60014 T01000089 10100 20072 55007
KLLQ 222253Z AUTO 08009KT 10SM OVC003 10/09 A3021 RMK AO2 SLP228 T01000089
KLLQ 222153Z AUTO 05007KT 10SM OVC004 10/08 A3022 RMK AO2 SLP233 T01000083
KLLQ 222053Z AUTO 05009KT 10SM OVC004 09/08 A3023 RMK AO2 RAE35 SLP238 P0005 60014 T00940083 58036
KLLQ 221953Z AUTO 06007KT 10SM -RA OVC004 08/07 A3026 RMK AO2 RAB05 SLP249 P0009 T00830072
KLLQ 221853Z AUTO 06004KT 10SM OVC003 08/07 A3033 RMK AO2 LTG DSNT SW AND W SLP270 T00780067
KLLQ 221753Z AUTO 05009KT 5SM BR OVC003 07/06 A3034 RMK AO2 SLP275 T00720061 10078 20056 58003
KLLQ 221653Z AUTO 04007KT 10SM OVC004 07/06 A3035 RMK AO2 SLP278 T00670056
KLLQ 221553Z AUTO 04010KT 9SM OVC003 07/05 A3034 RMK AO2 SLP273 T00670050
KLLQ 221520Z AUTO 03004KT 4SM BR OVC003 06/05 A3034 RMK AO2 T00610050
KLLQ 221453Z AUTO 03005KT 2 1/2SM BR OVC003 06/05 A3035 RMK AO2 SLP276 T00560050 51025
KLLQ 221440Z AUTO VRB03KT 2SM BR OVC003 06/04 A3035 RMK AO2 T00560044
KLLQ 221416Z AUTO VRB04KT 3SM BR OVC003 06/04 A3034 RMK AO2 T00560044
KLLQ 221353Z AUTO 34004KT 2 1/2SM BR OVC003 06/05 A3033 RMK AO2 SLP271 T00560050
KLLQ 221344Z AUTO 02003KT 2SM BR OVC003 06/04 A3033 RMK AO2 T00560044
KLLQ 221323Z AUTO VRB05KT 3SM BR OVC002 06/04 A3032 RMK AO2 T00560044
KLLQ 221302Z AUTO VRB03KT 1 3/4SM BR OVC002 06/05 A3032 RMK AO2 PRESRR T00610050
KLLQ 221253Z AUTO VRB05KT 2SM BR OVC002 06/05 A3030 RMK AO2 SLP260 T00610050
KLLQ 221153Z AUTO VRB05KT 2SM BR OVC003 06/06 A3027 RMK AO2 RAE11B29E39 SLP251 P0001 60053 70555 T00610056 10067 20061 53012